sensor_id;sensor_type;location;lat;lon;timestamp;pressure;altitude;pressure_sealevel;temperature;humidity
70445;BME280;57902;49.638;11.070;2023-04-27T00:01:20;98427.41;;;4.80;78.75
70445;BME280;57902;49.638;11.070;2023-04-27T00:03:47;98429.16;;;4.75;78.33
70445;BME280;57902;49.638;11.070;2023-04-27T00:06:14;98424.84;;;4.81;77.50
70445;BME280;57902;49.638;11.070;2023-04-27T00:08:41;98425.75;;;4.79;78.12
70445;BME280;57902;49.638;11.070;2023-04-27T00:11:07;98428.28;;;4.80;78.18
70445;BME280;57902;49.638;11.070;2023-04-27T00:13:33;98427.44;;;4.77;78.68
70445;BME280;57902;49.638;11.070;2023-04-27T00:16:00;98429.16;;;4.78;78.26
70445;BME280;57902;49.638;11.070;2023-04-27T00:18:29;98421.50;;;4.75;77.82
70445;BME280;57902;49.638;11.070;2023-04-27T00:20:56;98424.91;;;4.73;78.74
70445;BME280;57902;49.638;11.070;2023-04-27T00:23:24;98424.06;;;4.71;77.73
70445;BME280;57902;49.638;11.070;2023-04-27T00:25:51;98418.97;;;4.71;77.77
70445;BME280;57902;49.638;11.070;2023-04-27T00:28:18;98411.31;;;4.68;78.15
70445;BME280;57902;49.638;11.070;2023-04-27T00:30:44;98416.41;;;4.73;78.68
70445;BME280;57902;49.638;11.070;2023-04-27T00:33:11;98418.06;;;4.76;78.99
70445;BME280;57902;49.638;11.070;2023-04-27T00:35:38;98409.59;;;4.72;78.78
70445;BME280;57902;49.638;11.070;2023-04-27T00:38:04;98412.13;;;4.73;80.31
70445;BME280;57902;49.638;11.070;2023-04-27T00:40:30;98405.28;;;4.76;78.27
70445;BME280;57902;49.638;11.070;2023-04-27T00:42:57;98409.56;;;4.78;80.58
70445;BME280;57902;49.638;11.070;2023-04-27T00:45:23;98404.47;;;4.75;79.94
70445;BME280;57902;49.638;11.070;2023-04-27T00:47:50;98408.72;;;4.75;80.15
70445;BME280;57902;49.638;11.070;2023-04-27T00:50:19;98399.38;;;4.72;79.79
70445;BME280;57902;49.638;11.070;2023-04-27T00:52:49;98402.75;;;4.76;79.85
70445;BME280;57902;49.638;11.070;2023-04-27T00:55:15;98409.56;;;4.75;79.80
70445;BME280;57902;49.638;11.070;2023-04-27T00:57:42;98400.19;;;4.72;79.85
70445;BME280;57902;49.638;11.070;2023-04-27T01:00:09;98402.78;;;4.69;81.61
70445;BME280;57902;49.638;11.070;2023-04-27T01:02:36;98401.97;;;4.63;81.60
70445;BME280;57902;49.638;11.070;2023-04-27T01:05:03;98398.53;;;4.62;82.38
70445;BME280;57902;49.638;11.070;2023-04-27T01:07:30;98403.69;;;4.56;81.98
70445;BME280;57902;49.638;11.070;2023-04-27T01:09:56;98404.53;;;4.58;81.51
70445;BME280;57902;49.638;11.070;2023-04-27T01:12:23;98401.97;;;4.53;83.17
70445;BME280;57902;49.638;11.070;2023-04-27T01:14:49;98408.81;;;4.53;83.11
70445;BME280;57902;49.638;11.070;2023-04-27T01:17:16;98406.25;;;4.50;82.34
70445;BME280;57902;49.638;11.070;2023-04-27T01:19:46;98404.56;;;4.49;83.66
70445;BME280;57902;49.638;11.070;2023-04-27T01:22:13;98407.09;;;4.49;82.63
70445;BME280;57902;49.638;11.070;2023-04-27T01:24:40;98402.00;;;4.49;83.84
70445;BME280;57902;49.638;11.070;2023-04-27T01:27:07;98403.69;;;4.51;83.33
70445;BME280;57902;49.638;11.070;2023-04-27T01:29:33;98402.00;;;4.52;83.62
70445;BME280;57902;49.638;11.070;2023-04-27T01:31:59;98408.81;;;4.50;83.71
70445;BME280;57902;49.638;11.070;2023-04-27T01:34:26;98409.66;;;4.50;83.47
70445;BME280;57902;49.638;11.070;2023-04-27T01:36:52;98408.81;;;4.48;83.01
70445;BME280;57902;49.638;11.070;2023-04-27T01:39:19;98409.66;;;4.49;83.66
70445;BME280;57902;49.638;11.070;2023-04-27T01:41:45;98402.00;;;4.52;83.31
70445;BME280;57902;49.638;11.070;2023-04-27T01:44:12;98407.94;;;4.54;82.91
70445;BME280;57902;49.638;11.070;2023-04-27T01:46:38;98402.84;;;4.52;83.30
70445;BME280;57902;49.638;11.070;2023-04-27T01:49:05;98403.72;;;4.48;83.51
70445;BME280;57902;49.638;11.070;2023-04-27T01:51:32;98398.63;;;4.41;83.86
70445;BME280;57902;49.638;11.070;2023-04-27T01:53:58;98401.19;;;4.42;84.37
70445;BME280;57902;49.638;11.070;2023-04-27T01:56:25;98402.03;;;4.41;85.00
70445;BME280;57902;49.638;11.070;2023-04-27T01:58:52;98400.31;;;4.42;85.35
70445;BME280;57902;49.638;11.070;2023-04-27T02:01:18;98396.94;;;4.40;84.50
70445;BME280;57902;49.638;11.070;2023-04-27T02:03:45;98400.31;;;4.38;85.18
70445;BME280;57902;49.638;11.070;2023-04-27T02:06:12;98404.59;;;4.40;85.46
70445;BME280;57902;49.638;11.070;2023-04-27T02:08:40;98402.03;;;4.40;84.50
70445;BME280;57902;49.638;11.070;2023-04-27T02:11:07;98406.28;;;4.42;85.18
70445;BME280;57902;49.638;11.070;2023-04-27T02:13:34;98406.28;;;4.45;84.31
70445;BME280;57902;49.638;11.070;2023-04-27T02:16:00;98395.22;;;4.48;84.43
70445;BME280;57902;49.638;11.070;2023-04-27T02:18:30;98404.53;;;4.52;84.55
70445;BME280;57902;49.638;11.070;2023-04-27T02:20:57;98407.06;;;4.55;85.28
70445;BME280;57902;49.638;11.070;2023-04-27T02:23:24;98412.22;;;4.49;84.13
70445;BME280;57902;49.638;11.070;2023-04-27T02:25:50;98410.50;;;4.54;85.01
70445;BME280;57902;49.638;11.070;2023-04-27T02:28:17;98414.75;;;4.58;84.70
70445;BME280;57902;49.638;11.070;2023-04-27T02:30:45;98419.00;;;4.58;84.74
70445;BME280;57902;49.638;11.070;2023-04-27T02:33:12;98416.44;;;4.58;85.23
70445;BME280;57902;49.638;11.070;2023-04-27T02:35:39;98416.44;;;4.58;84.95
70445;BME280;57902;49.638;11.070;2023-04-27T02:38:05;98421.53;;;4.62;85.46
70445;BME280;57902;49.638;11.070;2023-04-27T02:40:32;98425.81;;;4.59;88.37
70445;BME280;57902;49.638;11.070;2023-04-27T02:42:58;98420.69;;;4.60;87.84
70445;BME280;57902;49.638;11.070;2023-04-27T02:45:25;98410.50;;;4.54;87.44
70445;BME280;57902;49.638;11.070;2023-04-27T02:47:51;98420.72;;;4.54;88.53
70445;BME280;57902;49.638;11.070;2023-04-27T02:50:18;98420.72;;;4.52;88.78
70445;BME280;57902;49.638;11.070;2023-04-27T02:52:44;98412.19;;;4.55;88.70
70445;BME280;57902;49.638;11.070;2023-04-27T02:55:11;98422.41;;;4.49;90.07
70445;BME280;57902;49.638;11.070;2023-04-27T02:57:38;98421.59;;;4.45;89.80
70445;BME280;57902;49.638;11.070;2023-04-27T03:00:05;98419.88;;;4.43;89.59
70445;BME280;57902;49.638;11.070;2023-04-27T03:02:32;98422.44;;;4.43;89.12
70445;BME280;57902;49.638;11.070;2023-04-27T03:08:19;98425.00;;;4.44;87.82
70445;BME280;57902;49.638;11.070;2023-04-27T03:11:04;98427.56;;;4.43;88.21
70445;BME280;57902;49.638;11.070;2023-04-27T03:14:04;98422.44;;;4.44;89.41
70445;BME280;57902;49.638;11.070;2023-04-27T03:16:56;98427.53;;;4.44;88.75
70445;BME280;57902;49.638;11.070;2023-04-27T03:19:26;98430.09;;;4.41;89.72
70445;BME280;57902;49.638;11.070;2023-04-27T03:22:00;98425.84;;;4.43;89.28
70445;BME280;57902;49.638;11.070;2023-04-27T03:24:31;98429.25;;;4.44;88.78
70445;BME280;57902;49.638;11.070;2023-04-27T03:26:59;98436.91;;;4.37;90.28
70445;BME280;57902;49.638;11.070;2023-04-27T03:29:30;98431.81;;;4.41;91.29
70445;BME280;57902;49.638;11.070;2023-04-27T03:32:02;98430.94;;;4.43;90.07
70445;BME280;57902;49.638;11.070;2023-04-27T03:34:32;98429.28;;;4.39;90.34
70445;BME280;57902;49.638;11.070;2023-04-27T03:37:13;98436.06;;;4.37;90.48
70445;BME280;57902;49.638;11.070;2023-04-27T03:39:44;98433.50;;;4.37;89.63
70445;BME280;57902;49.638;11.070;2023-04-27T03:42:14;98440.31;;;4.40;89.91
70445;BME280;57902;49.638;11.070;2023-04-27T03:44:47;98443.72;;;4.37;90.70
70445;BME280;57902;49.638;11.070;2023-04-27T03:47:20;98443.72;;;4.37;90.59
70445;BME280;57902;49.638;11.070;2023-04-27T03:49:57;98447.13;;;4.36;90.69
70445;BME280;57902;49.638;11.070;2023-04-27T03:52:35;98453.09;;;4.36;91.10
70445;BME280;57902;49.638;11.070;2023-04-27T03:55:12;98451.38;;;4.35;90.22
70445;BME280;57902;49.638;11.070;2023-04-27T03:57:42;98464.97;;;4.37;90.47
70445;BME280;57902;49.638;11.070;2023-04-27T04:00:09;98464.13;;;4.38;91.46
70445;BME280;57902;49.638;11.070;2023-04-27T04:02:37;98461.59;;;4.38;91.31
70445;BME280;57902;49.638;11.070;2023-04-27T04:05:05;98459.91;;;4.41;90.35
70445;BME280;57902;49.638;11.070;2023-04-27T04:07:31;98468.41;;;4.41;90.96
70445;BME280;57902;49.638;11.070;2023-04-27T04:09:58;98466.69;;;4.42;90.81
70445;BME280;57902;49.638;11.070;2023-04-27T04:12:24;98465.00;;;4.42;90.90
70445;BME280;57902;49.638;11.070;2023-04-27T04:14:53;98463.28;;;4.43;90.26
70445;BME280;57902;49.638;11.070;2023-04-27T04:17:22;98457.34;;;4.41;90.72
70445;BME280;57902;49.638;11.070;2023-04-27T04:20:03;98456.47;;;4.42;91.14
70445;BME280;57902;49.638;11.070;2023-04-27T04:22:53;98453.91;;;4.43;91.36
70445;BME280;57902;49.638;11.070;2023-04-27T04:25:26;98446.25;;;4.45;91.21
70445;BME280;57902;49.638;11.070;2023-04-27T04:27:57;98443.72;;;4.40;91.08
70445;BME280;57902;49.638;11.070;2023-04-27T04:30:29;98449.69;;;4.34;91.04
70445;BME280;57902;49.638;11.070;2023-04-27T04:32:56;98449.69;;;4.34;91.52
70445;BME280;57902;49.638;11.070;2023-04-27T04:35:34;98453.09;;;4.33;90.98
70445;BME280;57902;49.638;11.070;2023-04-27T04:38:10;98453.94;;;4.37;91.34
70445;BME280;57902;49.638;11.070;2023-04-27T04:40:47;98454.78;;;4.42;90.48
70445;BME280;57902;49.638;11.070;2023-04-27T04:43:18;98458.16;;;4.49;90.54
70445;BME280;57902;49.638;11.070;2023-04-27T04:45:44;98457.31;;;4.53;89.85
70445;BME280;57902;49.638;11.070;2023-04-27T04:48:17;98458.13;;;4.64;88.41
70445;BME280;57902;49.638;11.070;2023-04-27T04:50:50;98458.13;;;4.66;88.93
70445;BME280;57902;49.638;11.070;2023-04-27T04:53:31;98455.56;;;4.69;89.55
70445;BME280;57902;49.638;11.070;2023-04-27T04:56:15;98458.94;;;4.74;89.12
70445;BME280;57902;49.638;11.070;2023-04-27T04:58:42;98454.69;;;4.78;89.08
70445;BME280;57902;49.638;11.070;2023-04-27T05:01:14;98460.63;;;4.80;88.96
70445;BME280;57902;49.638;11.070;2023-04-27T05:03:47;98452.09;;;4.87;88.44
70445;BME280;57902;49.638;11.070;2023-04-27T05:06:17;98467.38;;;4.96;87.89
70445;BME280;57902;49.638;11.070;2023-04-27T05:08:48;98463.09;;;5.01;88.15
70445;BME280;57902;49.638;11.070;2023-04-27T05:11:19;98462.25;;;5.05;87.18
70445;BME280;57902;49.638;11.070;2023-04-27T05:13:50;98470.69;;;5.17;86.56
70445;BME280;57902;49.638;11.070;2023-04-27T05:16:26;98468.09;;;5.28;85.89
70445;BME280;57902;49.638;11.070;2023-04-27T05:19:09;98475.75;;;5.28;85.73
70445;BME280;57902;49.638;11.070;2023-04-27T05:21:57;98474.03;;;5.28;85.07
70445;BME280;57902;49.638;11.070;2023-04-27T05:24:28;98473.09;;;5.43;85.39
70445;BME280;57902;49.638;11.070;2023-04-27T05:26:54;98480.75;;;5.44;84.62
70445;BME280;57902;49.638;11.070;2023-04-27T05:29:24;98475.66;;;5.48;84.76
70445;BME280;57902;49.638;11.070;2023-04-27T05:32:11;98484.09;;;5.59;84.00
70445;BME280;57902;49.638;11.070;2023-04-27T05:34:38;98478.94;;;5.65;84.26
70445;BME280;57902;49.638;11.070;2023-04-27T05:37:07;98490.00;;;5.70;84.26
70445;BME280;57902;49.638;11.070;2023-04-27T05:39:37;98491.66;;;5.76;84.65
70445;BME280;57902;49.638;11.070;2023-04-27T05:42:14;98494.16;;;5.84;83.93
70445;BME280;57902;49.638;11.070;2023-04-27T05:44:43;98498.38;;;5.92;84.27
70445;BME280;57902;49.638;11.070;2023-04-27T05:47:20;98500.91;;;5.99;84.41
70445;BME280;57902;49.638;11.070;2023-04-27T05:49:50;98497.50;;;5.96;84.40
70445;BME280;57902;49.638;11.070;2023-04-27T05:52:25;98500.84;;;6.09;83.75
70445;BME280;57902;49.638;11.070;2023-04-27T05:55:11;98495.59;;;6.22;83.42
70445;BME280;57902;49.638;11.070;2023-04-27T05:57:48;98498.94;;;6.33;81.82
70445;BME280;57902;49.638;11.070;2023-04-27T06:00:33;98503.06;;;6.46;80.28
70445;BME280;57902;49.638;11.070;2023-04-27T06:03:01;98507.31;;;6.51;76.68
70445;BME280;57902;49.638;11.070;2023-04-27T06:05:34;98505.47;;;6.62;78.19
70445;BME280;57902;49.638;11.070;2023-04-27T06:08:08;98502.88;;;6.68;79.44
70445;BME280;57902;49.638;11.070;2023-04-27T06:10:39;98508.69;;;6.81;79.41
70445;BME280;57902;49.638;11.070;2023-04-27T06:13:11;98506.88;;;6.91;79.01
70445;BME280;57902;49.638;11.070;2023-04-27T06:15:43;98509.28;;;7.06;77.97
70445;BME280;57902;49.638;11.070;2023-04-27T06:18:15;98501.19;;;7.37;77.68
70445;BME280;57902;49.638;11.070;2023-04-27T06:20:44;98506.41;;;7.92;75.92
70445;BME280;57902;49.638;11.070;2023-04-27T06:23:17;98500.13;;;8.63;73.45
70445;BME280;57902;49.638;11.070;2023-04-27T06:25:48;98501.63;;;9.18;69.37
70445;BME280;57902;49.638;11.070;2023-04-27T06:28:20;98501.59;;;9.20;66.84
70445;BME280;57902;49.638;11.070;2023-04-27T06:33:35;98510.56;;;9.41;66.16
70445;BME280;57902;49.638;11.070;2023-04-27T06:36:06;98515.47;;;9.11;66.51
70445;BME280;57902;49.638;11.070;2023-04-27T06:38:38;98514.78;;;9.03;66.48
70445;BME280;57902;49.638;11.070;2023-04-27T06:41:19;98510.56;;;9.00;65.68
70445;BME280;57902;49.638;11.070;2023-04-27T06:43:49;98516.22;;;8.72;66.46
70445;BME280;57902;49.638;11.070;2023-04-27T06:46:26;98513.84;;;8.60;67.52
70445;BME280;57902;49.638;11.070;2023-04-27T06:48:54;98514.78;;;8.57;66.45
70445;BME280;57902;49.638;11.070;2023-04-27T06:51:21;98517.25;;;8.64;66.47
70445;BME280;57902;49.638;11.070;2023-04-27T06:53:47;98513.81;;;8.62;66.82
70445;BME280;57902;49.638;11.070;2023-04-27T06:56:16;98510.16;;;8.77;65.82
70445;BME280;57902;49.638;11.070;2023-04-27T06:58:43;98516.34;;;8.65;67.19
70445;BME280;57902;49.638;11.070;2023-04-27T07:01:09;98515.59;;;8.60;68.35
70445;BME280;57902;49.638;11.070;2023-04-27T07:03:37;98513.75;;;8.68;68.40
70445;BME280;57902;49.638;11.070;2023-04-27T07:06:04;98518.41;;;8.92;66.71
70445;BME280;57902;49.638;11.070;2023-04-27T07:08:31;98511.34;;;9.04;68.07
70445;BME280;57902;49.638;11.070;2023-04-27T07:10:57;98515.88;;;9.33;66.30
70445;BME280;57902;49.638;11.070;2023-04-27T07:13:24;98516.78;;;9.31;66.34
70445;BME280;57902;49.638;11.070;2023-04-27T07:15:54;98518.72;;;9.61;66.28
70445;BME280;57902;49.638;11.070;2023-04-27T07:18:24;98511.13;;;9.94;65.33
70445;BME280;57902;49.638;11.070;2023-04-27T07:20:54;98519.00;;;10.24;64.10
70445;BME280;57902;49.638;11.070;2023-04-27T07:23:22;98520.78;;;10.57;63.76
70445;BME280;57902;49.638;11.070;2023-04-27T07:25:49;98518.22;;;10.90;63.42
70445;BME280;57902;49.638;11.070;2023-04-27T07:28:19;98522.03;;;11.08;60.85
70445;BME280;57902;49.638;11.070;2023-04-27T07:30:46;98515.41;;;10.97;60.47
70445;BME280;57902;49.638;11.070;2023-04-27T07:33:15;98520.13;;;11.14;59.38
70445;BME280;57902;49.638;11.070;2023-04-27T07:35:44;98525.75;;;11.27;57.44
70445;BME280;57902;49.638;11.070;2023-04-27T07:38:16;98526.22;;;11.42;58.27
70445;BME280;57902;49.638;11.070;2023-04-27T07:40:51;98517.38;;;11.20;56.17
70445;BME280;57902;49.638;11.070;2023-04-27T07:43:22;98528.97;;;11.65;56.71
70445;BME280;57902;49.638;11.070;2023-04-27T07:45:51;98526.63;;;11.86;55.65
70445;BME280;57902;49.638;11.070;2023-04-27T07:48:21;98528.97;;;12.22;54.13
70445;BME280;57902;49.638;11.070;2023-04-27T07:50:53;98525.88;;;12.64;54.17
70445;BME280;57902;49.638;11.070;2023-04-27T07:53:22;98531.63;;;12.96;49.04
70445;BME280;57902;49.638;11.070;2023-04-27T07:55:56;98527.22;;;13.23;49.36
70445;BME280;57902;49.638;11.070;2023-04-27T07:58:31;98531.06;;;13.60;49.03
70445;BME280;57902;49.638;11.070;2023-04-27T08:00:59;98529.84;;;13.47;44.38
70445;BME280;57902;49.638;11.070;2023-04-27T08:03:38;98531.94;;;13.83;45.54
70445;BME280;57902;49.638;11.070;2023-04-27T08:06:19;98531.25;;;14.00;45.44
70445;BME280;57902;49.638;11.070;2023-04-27T08:08:49;98532.03;;;14.24;44.97
70445;BME280;57902;49.638;11.070;2023-04-27T08:11:19;98535.22;;;14.74;43.20
70445;BME280;57902;49.638;11.070;2023-04-27T08:13:55;98533.94;;;14.41;43.56
70445;BME280;57902;49.638;11.070;2023-04-27T08:16:22;98537.69;;;14.55;42.81
70445;BME280;57902;49.638;11.070;2023-04-27T08:18:54;98538.72;;;14.50;43.57
70445;BME280;57902;49.638;11.070;2023-04-27T08:21:32;98533.56;;;14.92;41.70
70445;BME280;57902;49.638;11.070;2023-04-27T08:24:05;98531.78;;;14.73;41.39
70445;BME280;57902;49.638;11.070;2023-04-27T08:26:34;98541.09;;;14.98;42.05
70445;BME280;57902;49.638;11.070;2023-04-27T08:29:11;98538.38;;;15.01;38.52
70445;BME280;57902;49.638;11.070;2023-04-27T08:32:03;98530.31;;;15.07;38.22
70445;BME280;57902;49.638;11.070;2023-04-27T08:35:00;98541.88;;;15.39;39.08
70445;BME280;57902;49.638;11.070;2023-04-27T08:37:46;98537.09;;;15.68;38.65
70445;BME280;57902;49.638;11.070;2023-04-27T08:40:15;98530.66;;;16.14;36.13
70445;BME280;57902;49.638;11.070;2023-04-27T08:43:55;98539.25;;;16.33;33.54
70445;BME280;57902;49.638;11.070;2023-04-27T08:46:23;98529.09;;;16.64;34.37
70445;BME280;57902;49.638;11.070;2023-04-27T08:49:09;98529.25;;;16.43;33.72
70445;BME280;57902;49.638;11.070;2023-04-27T08:51:46;98521.28;;;16.64;33.72
70445;BME280;57902;49.638;11.070;2023-04-27T08:54:17;98523.22;;;17.11;34.52
70445;BME280;57902;49.638;11.070;2023-04-27T08:57:19;98527.31;;;16.99;34.03
70445;BME280;57902;49.638;11.070;2023-04-27T09:00:40;98527.69;;;16.39;33.41
70445;BME280;57902;49.638;11.070;2023-04-27T09:03:33;98531.38;;;16.35;35.10
70445;BME280;57902;49.638;11.070;2023-04-27T09:06:06;98535.69;;;15.99;34.82
70445;BME280;57902;49.638;11.070;2023-04-27T09:08:49;98535.97;;;15.74;35.40
70445;BME280;57902;49.638;11.070;2023-04-27T09:11:31;98524.50;;;15.59;34.03
70445;BME280;57902;49.638;11.070;2023-04-27T09:17:57;98521.09;;;15.39;35.69
70445;BME280;57902;49.638;11.070;2023-04-27T09:23:49;98513.22;;;15.60;35.68
70445;BME280;57902;49.638;11.070;2023-04-27T09:26:48;98511.81;;;15.53;34.99
70445;BME280;57902;49.638;11.070;2023-04-27T09:29:38;98508.31;;;15.54;35.01
70445;BME280;57902;49.638;11.070;2023-04-27T09:32:17;98498.19;;;15.29;35.89
70445;BME280;57902;49.638;11.070;2023-04-27T09:34:48;98498.81;;;15.34;35.91
70445;BME280;57902;49.638;11.070;2023-04-27T09:37:33;98493.84;;;15.48;35.18
70445;BME280;57902;49.638;11.070;2023-04-27T09:40:50;98483.03;;;15.38;34.95
70445;BME280;57902;49.638;11.070;2023-04-27T09:43:52;98488.13;;;15.40;35.63
70445;BME280;57902;49.638;11.070;2023-04-27T09:46:51;98479.34;;;14.85;37.14
70445;BME280;57902;49.638;11.070;2023-04-27T09:49:53;98485.81;;;15.15;35.78
70445;BME280;57902;49.638;11.070;2023-04-27T10:04:05;98482.63;;;15.29;37.34
70445;BME280;57902;49.638;11.070;2023-04-27T10:10:03;98463.84;;;15.41;35.61
70445;BME280;57902;49.638;11.070;2023-04-27T10:13:24;98478.09;;;15.51;35.53
70445;BME280;57902;49.638;11.070;2023-04-27T10:19:33;98475.97;;;14.83;38.09
70445;BME280;57902;49.638;11.070;2023-04-27T10:22:45;98480.22;;;15.24;36.82
70445;BME280;57902;49.638;11.070;2023-04-27T10:25:21;98472.63;;;15.38;37.48
70445;BME280;57902;49.638;11.070;2023-04-27T10:28:06;98470.38;;;15.31;35.60
70445;BME280;57902;49.638;11.070;2023-04-27T10:30:43;98469.97;;;15.21;36.59
70445;BME280;57902;49.638;11.070;2023-04-27T10:33:42;98472.78;;;15.16;37.25
70445;BME280;57902;49.638;11.070;2023-04-27T10:36:22;98473.06;;;15.29;36.86
70445;BME280;57902;49.638;11.070;2023-04-27T10:39:19;98474.59;;;15.14;37.13
70445;BME280;57902;49.638;11.070;2023-04-27T10:42:32;98466.75;;;15.16;37.29
70445;BME280;57902;49.638;11.070;2023-04-27T10:45:08;98455.63;;;15.31;36.42
70445;BME280;57902;49.638;11.070;2023-04-27T10:47:48;98460.50;;;15.39;36.28
70445;BME280;57902;49.638;11.070;2023-04-27T10:54:01;98458.69;;;15.78;35.57
70445;BME280;57902;49.638;11.070;2023-04-27T10:57:09;98459.91;;;16.07;34.50
70445;BME280;57902;49.638;11.070;2023-04-27T10:59:53;98461.75;;;16.22;33.88
70445;BME280;57902;49.638;11.070;2023-04-27T11:02:51;98453.47;;;15.97;33.76
70445;BME280;57902;49.638;11.070;2023-04-27T11:05:47;98446.38;;;15.64;34.96
70445;BME280;57902;49.638;11.070;2023-04-27T11:08:55;98456.75;;;15.83;34.09
70445;BME280;57902;49.638;11.070;2023-04-27T11:11:51;98446.53;;;15.42;34.32
70445;BME280;57902;49.638;11.070;2023-04-27T11:14:26;98444.00;;;15.21;35.51
70445;BME280;57902;49.638;11.070;2023-04-27T11:17:07;98445.63;;;15.23;35.15
70445;BME280;57902;49.638;11.070;2023-04-27T11:19:50;98441.50;;;14.59;37.11
70445;BME280;57902;49.638;11.070;2023-04-27T11:22:52;98454.31;;;14.84;36.32
70445;BME280;57902;49.638;11.070;2023-04-27T11:26:14;98448.47;;;14.79;36.73
70445;BME280;57902;49.638;11.070;2023-04-27T11:29:42;98450.03;;;15.02;37.33
70445;BME280;57902;49.638;11.070;2023-04-27T11:32:49;98455.50;;;14.96;36.86
70445;BME280;57902;49.638;11.070;2023-04-27T11:35:48;98457.47;;;15.10;38.10
70445;BME280;57902;49.638;11.070;2023-04-27T11:38:33;98453.09;;;14.92;36.64
70445;BME280;57902;49.638;11.070;2023-04-27T11:41:40;98447.41;;;14.83;36.98
70445;BME280;57902;49.638;11.070;2023-04-27T11:45:00;98445.63;;;14.65;36.74
70445;BME280;57902;49.638;11.070;2023-04-27T11:47:56;98451.06;;;14.79;36.13
70445;BME280;57902;49.638;11.070;2023-04-27T11:50:37;98450.03;;;14.83;36.19
70445;BME280;57902;49.638;11.070;2023-04-27T11:53:16;98444.09;;;14.80;36.26
70445;BME280;57902;49.638;11.070;2023-04-27T11:56:09;98445.72;;;14.82;35.84
70445;BME280;57902;49.638;11.070;2023-04-27T11:59:20;98449.88;;;14.86;36.66
70445;BME280;57902;49.638;11.070;2023-04-27T12:02:19;98445.06;;;14.98;38.95
70445;BME280;57902;49.638;11.070;2023-04-27T12:05:33;98443.06;;;14.84;35.93
70445;BME280;57902;49.638;11.070;2023-04-27T12:08:30;98434.81;;;15.14;37.63
70445;BME280;57902;49.638;11.070;2023-04-27T12:11:12;98433.88;;;15.34;36.99
70445;BME280;57902;49.638;11.070;2023-04-27T12:14:06;98426.00;;;15.54;36.29
70445;BME280;57902;49.638;11.070;2023-04-27T12:17:11;98431.03;;;15.57;35.90
70445;BME280;57902;49.638;11.070;2023-04-27T12:20:01;98405.34;;;15.88;36.18
70445;BME280;57902;49.638;11.070;2023-04-27T12:22:34;98422.75;;;16.22;36.04
70445;BME280;57902;49.638;11.070;2023-04-27T12:25:17;98427.97;;;16.38;35.05
70445;BME280;57902;49.638;11.070;2023-04-27T12:28:06;98415.94;;;16.71;34.48
70445;BME280;57902;49.638;11.070;2023-04-27T12:31:15;98419.66;;;16.99;33.95
70445;BME280;57902;49.638;11.070;2023-04-27T12:34:05;98427.56;;;16.97;33.22
70445;BME280;57902;49.638;11.070;2023-04-27T12:37:11;98426.38;;;16.69;33.20
70445;BME280;57902;49.638;11.070;2023-04-27T12:39:58;98411.22;;;16.77;36.66
70445;BME280;57902;49.638;11.070;2023-04-27T12:46:16;98418.06;;;16.62;33.96
70445;BME280;57902;49.638;11.070;2023-04-27T12:48:57;98421.88;;;16.73;34.89
70445;BME280;57902;49.638;11.070;2023-04-27T12:51:32;98427.97;;;16.89;33.83
70445;BME280;57902;49.638;11.070;2023-04-27T12:54:18;98418.91;;;16.96;33.35
70445;BME280;57902;49.638;11.070;2023-04-27T12:57:00;98418.13;;;17.12;34.01
70445;BME280;57902;49.638;11.070;2023-04-27T12:59:37;98414.22;;;17.19;34.52
70445;BME280;57902;49.638;11.070;2023-04-27T13:02:11;98418.78;;;17.31;33.47
70445;BME280;57902;49.638;11.070;2023-04-27T13:05:12;98417.50;;;17.23;32.81
70445;BME280;57902;49.638;11.070;2023-04-27T13:07:46;98421.88;;;16.90;33.40
70445;BME280;57902;49.638;11.070;2023-04-27T13:10:23;98418.03;;;16.80;33.48
70445;BME280;57902;49.638;11.070;2023-04-27T13:13:04;98410.38;;;16.77;34.56
70445;BME280;57902;49.638;11.070;2023-04-27T13:15:57;98410.81;;;16.85;34.00
70445;BME280;57902;49.638;11.070;2023-04-27T13:19:13;98417.03;;;16.49;34.04
70445;BME280;57902;49.638;11.070;2023-04-27T13:22:04;98409.84;;;16.19;34.33
70445;BME280;57902;49.638;11.070;2023-04-27T13:27:48;98410.97;;;15.98;34.79
70445;BME280;57902;49.638;11.070;2023-04-27T13:30:15;98402.38;;;15.96;36.33
70445;BME280;57902;49.638;11.070;2023-04-27T13:32:41;98399.75;;;16.31;35.09
70445;BME280;57902;49.638;11.070;2023-04-27T13:35:11;98395.69;;;16.42;34.18
70445;BME280;57902;49.638;11.070;2023-04-27T13:37:38;98397.03;;;16.50;33.87
70445;BME280;57902;49.638;11.070;2023-04-27T13:40:08;98391.00;;;16.49;34.18
70445;BME280;57902;49.638;11.070;2023-04-27T13:42:38;98388.09;;;16.55;33.73
70445;BME280;57902;49.638;11.070;2023-04-27T13:45:05;98390.16;;;16.15;34.95
70445;BME280;57902;49.638;11.070;2023-04-27T13:47:32;98392.13;;;16.10;34.55
70445;BME280;57902;49.638;11.070;2023-04-27T13:50:07;98390.59;;;16.06;34.20
70445;BME280;57902;49.638;11.070;2023-04-27T13:52:35;98390.31;;;16.12;35.39
70445;BME280;57902;49.638;11.070;2023-04-27T13:55:03;98382.94;;;16.20;34.86
70445;BME280;57902;49.638;11.070;2023-04-27T13:57:29;98384.81;;;16.01;35.50
70445;BME280;57902;49.638;11.070;2023-04-27T13:59:56;98385.69;;;16.17;36.15
70445;BME280;57902;49.638;11.070;2023-04-27T14:02:23;98381.50;;;15.97;35.01
70445;BME280;57902;49.638;11.070;2023-04-27T14:04:50;98378.88;;;15.80;36.48
70445;BME280;57902;49.638;11.070;2023-04-27T14:07:18;98381.69;;;15.75;36.00
70445;BME280;57902;49.638;11.070;2023-04-27T14:09:44;98370.94;;;15.65;36.57
70445;BME280;57902;49.638;11.070;2023-04-27T14:12:11;98377.56;;;15.71;36.14
70445;BME280;57902;49.638;11.070;2023-04-27T14:14:38;98377.75;;;15.49;36.13
70445;BME280;57902;49.638;11.070;2023-04-27T14:17:05;98375.59;;;15.76;36.71
70445;BME280;57902;49.638;11.070;2023-04-27T14:19:33;98380.03;;;15.74;37.27
70445;BME280;57902;49.638;11.070;2023-04-27T14:22:00;98371.28;;;15.75;36.01
70445;BME280;57902;49.638;11.070;2023-04-27T14:24:27;98368.50;;;15.80;37.04